Time;durP1;ratioP1;P1;durP2;ratioP2;P2;SDS_P1;SDS_P2;PMS_P1;PMS_P2;Temp;Humidity;BMP_temperature;BMP_pressure;BME280_temperature;BME280_humidity;BME280_pressure;Samples;Min_cycle;Max_cycle;Signal;HPM_P1;HPM_P2
2022/11/11 00:01:11;;;;;;;5.30;1.50;;;;;;;9.57;80.18;102023.80;103351;1289;61339;-76
2022/11/11 00:03:37;;;;;;;5.20;1.40;;;;;;;9.58;80.02;102025.29;103322;1294;73658;-75
2022/11/11 00:06:10;;;;;;;3.60;1.20;;;;;;;9.57;80.19;102026.60;103974;1302;70344;-75
2022/11/11 00:08:36;;;;;;;3.80;1.30;;;;;;;9.56;80.04;102024.37;103113;1306;70349;-75
2022/11/11 00:11:08;;;;;;;6.10;1.50;;;;;;;9.56;80.09;102033.40;103437;1294;61410;-75
2022/11/11 00:13:37;;;;;;;5.70;1.70;;;;;;;9.55;80.16;102038.27;103427;1301;61383;-76
2022/11/11 00:16:21;;;;;;;7.20;1.90;;;;;;;9.54;80.26;102045.45;103264;1303;72820;-75
2022/11/11 00:27:10;;;;;;;6.80;1.50;;;;;;;9.53;80.22;102048.16;103371;1302;61384;-76
2022/11/11 00:29:38;;;;;;;4.30;1.30;;;;;;;9.51;80.11;102040.95;103339;1302;76090;-75
2022/11/11 00:32:21;;;;;;;4.80;1.50;;;;;;;9.49;80.15;102044.66;103235;1295;70205;-75
2022/11/11 00:37:39;;;;;;;5.10;1.40;;;;;;;9.43;80.23;102051.67;103291;1301;61299;-75
2022/11/11 00:40:06;;;;;;;4.60;1.40;;;;;;;9.41;80.29;102051.51;103168;1300;61252;-76
2022/11/11 00:42:33;;;;;;;6.20;1.40;;;;;;;9.37;80.25;102047.92;103650;1293;75510;-75
2022/11/11 00:44:59;;;;;;;5.30;1.50;;;;;;;9.34;80.51;102046.46;103421;1295;69722;-76
2022/11/11 00:53:06;;;;;;;6.10;1.60;;;;;;;9.17;81.21;102048.80;103259;1294;61299;-76
2022/11/11 00:55:33;;;;;;;5.80;1.70;;;;;;;9.13;81.51;102046.40;103929;1302;76331;-76
2022/11/11 00:58:00;;;;;;;5.90;1.70;;;;;;;9.09;81.86;102045.48;103742;1294;69912;-76
2022/11/11 01:00:26;;;;;;;4.00;1.40;;;;;;;9.07;81.86;102047.25;103326;1294;61382;-76
2022/11/11 01:02:52;;;;;;;8.20;1.90;;;;;;;9.05;82.10;102041.92;103676;1294;61377;-76
2022/11/11 01:05:19;;;;;;;5.10;1.40;;;;;;;9.04;82.11;102039.58;103370;1304;61417;-76
2022/11/11 01:07:49;;;;;;;8.10;1.80;;;;;;;9.03;82.20;102048.61;103236;1296;64035;-75
2022/11/11 01:10:37;;;;;;;3.20;1.10;;;;;;;9.03;81.94;102058.38;103222;1294;71287;-74
2022/11/11 01:13:11;;;;;;;4.30;1.40;;;;;;;9.02;82.06;102062.69;104096;1296;72813;-75
2022/11/11 01:15:40;;;;;;;4.30;1.30;;;;;;;9.02;82.21;102062.01;103002;1298;61331;-75
2022/11/11 01:18:11;;;;;;;3.40;1.30;;;;;;;9.02;82.02;102066.40;103847;1297;61633;-75
2022/11/11 01:20:38;;;;;;;5.80;1.70;;;;;;;9.01;82.17;102070.54;103541;1288;73020;-75
2022/11/11 01:23:07;;;;;;;6.60;1.50;;;;;;;9.00;82.16;102070.63;103257;1295;70760;-75
2022/11/11 01:25:35;;;;;;;4.10;1.40;;;;;;;8.97;81.85;102067.96;103349;1303;72698;-75
2022/11/11 01:28:04;;;;;;;6.80;1.50;;;;;;;8.94;82.18;102064.38;102993;1306;62763;-75
2022/11/11 01:30:32;;;;;;;4.40;1.40;;;;;;;8.91;82.32;102063.91;104240;1296;59293;-75
2022/11/11 01:32:59;;;;;;;5.20;1.50;;;;;;;8.88;82.43;102057.96;103098;1296;73903;-74
2022/11/11 01:35:26;;;;;;;4.60;1.70;;;;;;;8.87;82.54;102057.21;104168;1294;70153;-75
2022/11/11 01:37:53;;;;;;;6.80;1.90;;;;;;;8.85;82.40;102060.37;103292;1298;71305;-74
2022/11/11 01:40:20;;;;;;;5.90;1.60;;;;;;;8.84;82.59;102057.98;103400;1297;59111;-75
2022/11/11 01:42:47;;;;;;;6.00;1.60;;;;;;;8.81;82.54;102056.30;103202;1294;61285;-75
2022/11/11 01:45:42;;;;;;;4.60;1.40;;;;;;;8.80;82.50;102058.88;103501;1297;73150;-75
2022/11/11 01:51:05;;;;;;;4.10;1.40;;;;;;;8.74;82.62;102054.73;103281;1295;72673;-76
2022/11/11 01:53:31;;;;;;;4.70;1.60;;;;;;;8.74;82.81;102056.21;103640;1297;61253;-76
2022/11/11 01:56:01;;;;;;;5.80;1.70;;;;;;;8.72;82.60;102054.80;103690;1298;61304;-76
2022/11/11 01:58:29;;;;;;;5.50;1.80;;;;;;;8.70;82.62;102057.23;103348;1301;74867;-75
2022/11/11 02:00:57;;;;;;;4.20;1.60;;;;;;;8.69;82.63;102049.73;103497;1298;69987;-75
2022/11/11 02:03:27;;;;;;;4.30;1.50;;;;;;;8.68;83.10;102048.42;103612;1302;72794;-76
2022/11/11 02:05:56;;;;;;;4.40;1.50;;;;;;;8.68;82.70;102048.09;104030;1302;62127;-76
2022/11/11 02:08:32;;;;;;;6.30;1.80;;;;;;;8.67;82.99;102051.52;103533;1302;61168;-76
2022/11/11 02:11:11;;;;;;;4.70;1.50;;;;;;;8.67;82.82;102044.27;103853;1297;72914;-76
2022/11/11 02:16:27;;;;;;;5.10;1.50;;;;;;;8.68;82.62;102042.61;102818;1298;72539;-76
2022/11/11 02:18:54;;;;;;;5.50;1.40;;;;;;;8.68;82.58;102041.38;103493;1301;60482;-75
2022/11/11 02:21:39;;;;;;;4.30;1.40;;;;;;;8.68;82.31;102045.75;102844;1305;61272;-74
2022/11/11 02:24:15;;;;;;;5.40;1.50;;;;;;;8.68;82.50;102055.25;103693;1295;74699;-75
2022/11/11 02:26:43;;;;;;;4.60;1.50;;;;;;;8.68;82.26;102057.23;103210;1298;70900;-75
2022/11/11 02:29:14;;;;;;;5.60;1.40;;;;;;;8.69;82.08;102059.27;104101;1294;72600;-75
2022/11/11 02:31:42;;;;;;;4.40;1.60;;;;;;;8.69;82.28;102063.64;103231;1297;61201;-75
2022/11/11 02:34:08;;;;;;;4.70;1.40;;;;;;;8.70;81.89;102067.05;103225;1294;61524;-75
2022/11/11 02:36:37;;;;;;;5.40;1.90;;;;;;;8.71;81.74;102069.17;103420;1295;59389;-75
2022/11/11 02:39:03;;;;;;;6.40;1.80;;;;;;;8.71;81.81;102076.20;103479;1291;70961;-74
2022/11/11 02:42:16;;;;;;;4.70;1.50;;;;;;;8.71;81.89;102081.86;103541;1301;70946;-75
2022/11/11 02:44:17;;;;;;;2.90;1.20;;;;;;;8.71;81.78;102079.38;103583;1301;61327;-74
2022/11/11 02:46:44;;;;;;;4.50;1.40;;;;;;;8.73;81.59;102087.35;103778;1288;61394;-75
2022/11/11 02:49:10;;;;;;;6.70;1.40;;;;;;;8.73;81.57;102091.00;103441;1304;72758;-75
2022/11/11 02:51:37;;;;;;;6.40;1.60;;;;;;;8.74;81.45;102096.03;103366;1287;61210;-75
2022/11/11 02:54:03;;;;;;;4.70;1.50;;;;;;;8.74;81.46;102097.13;103181;1295;71529;-74
2022/11/11 02:59:15;;;;;;;5.90;1.50;;;;;;;8.72;81.58;102094.48;103673;1295;61231;-75
2022/11/11 03:01:42;;;;;;;4.70;1.40;;;;;;;8.70;81.36;102090.94;103471;1292;72455;-76
2022/11/11 03:04:09;;;;;;;3.50;1.20;;;;;;;8.68;81.36;102090.54;103591;1304;71230;-75
2022/11/11 03:06:35;;;;;;;4.70;1.30;;;;;;;8.66;81.41;102086.84;103611;1301;72286;-75
2022/11/11 03:09:02;;;;;;;6.40;1.70;;;;;;;8.63;81.56;102077.38;103370;1298;61347;-75
2022/11/11 03:11:29;;;;;;;5.20;1.40;;;;;;;8.61;81.60;102075.09;102951;1301;61867;-75
2022/11/11 03:13:59;;;;;;;4.40;1.40;;;;;;;8.60;81.64;102077.14;103997;1303;72431;-75
2022/11/11 03:19:12;;;;;;;4.60;1.40;;;;;;;8.59;81.56;102069.98;103444;1301;70891;-75
2022/11/11 03:21:38;;;;;;;4.30;1.30;;;;;;;8.60;81.59;102060.70;103548;1296;61287;-75
2022/11/11 03:25:36;;;;;;;4.40;1.30;;;;;;;8.60;81.27;102060.67;103430;1294;61846;-74
2022/11/11 03:27:12;;;;;;;4.80;1.40;;;;;;;8.60;81.15;102057.41;103661;1295;75774;-74
2022/11/11 03:29:38;;;;;;;3.30;1.30;;;;;;;8.61;81.58;102055.05;103116;1298;72218;-76
2022/11/11 03:32:06;;;;;;;5.90;1.50;;;;;;;8.60;81.02;102062.27;103416;1298;61267;-74
2022/11/11 03:34:32;;;;;;;5.30;1.30;;;;;;;8.61;81.03;102072.63;103629;1301;62044;-75
2022/11/11 03:39:44;;;;;;;4.60;1.30;;;;;;;8.65;81.15;102067.20;103488;1290;73092;-75
2022/11/11 03:42:11;;;;;;;3.00;1.10;;;;;;;8.68;80.78;102059.38;103533;1297;69465;-74
2022/11/11 03:44:37;;;;;;;4.20;1.30;;;;;;;8.69;80.63;102057.65;104002;1301;61162;-74
2022/11/11 03:47:04;;;;;;;3.00;1.50;;;;;;;8.71;80.57;102052.55;103512;1291;61393;-75
2022/11/11 03:49:30;;;;;;;2.80;1.20;;;;;;;8.73;80.45;102048.83;104149;1296;61233;-76
2022/11/11 03:51:57;;;;;;;4.40;1.50;;;;;;;8.76;80.27;102048.95;103253;1302;73167;-75
2022/11/11 03:54:23;;;;;;;3.10;1.30;;;;;;;8.78;80.06;102048.42;103448;1302;61249;-76
2022/11/11 03:56:50;;;;;;;4.80;1.40;;;;;;;8.79;79.83;102052.23;103265;1303;61164;-74
2022/11/11 03:59:16;;;;;;;5.00;1.40;;;;;;;8.81;79.86;102046.80;103957;1297;61379;-75
2022/11/11 04:18:14;;;;;;;4.10;1.70;;;;;;;8.78;79.50;102062.33;103973;1290;72136;-75
2022/11/11 04:23:27;;;;;;;5.50;1.50;;;;;;;8.77;79.49;102069.46;103724;1294;72435;-76
2022/11/11 04:25:55;;;;;;;3.60;1.30;;;;;;;8.78;79.53;102069.30;104180;1297;60898;-75
2022/11/11 04:31:07;;;;;;;5.50;1.30;;;;;;;8.81;79.11;102073.05;103444;1294;75635;-74
2022/11/11 04:33:34;;;;;;;4.00;1.20;;;;;;;8.83;79.22;102081.89;103389;1296;70183;-75
2022/11/11 04:36:00;;;;;;;3.40;1.20;;;;;;;8.84;79.12;102083.18;103627;1302;59267;-74
2022/11/11 04:41:12;;;;;;;5.40;1.50;;;;;;;8.85;78.91;102078.89;103601;1295;62816;-75
2022/11/11 04:46:24;;;;;;;4.60;1.50;;;;;;;8.82;78.71;102063.65;103663;1301;70401;-75
2022/11/11 04:48:50;;;;;;;4.90;1.60;;;;;;;8.80;79.11;102059.05;103360;1300;61250;-75
2022/11/11 04:51:17;;;;;;;3.60;1.40;;;;;;;8.78;79.08;102057.27;103532;1300;61401;-75
2022/11/11 04:53:43;;;;;;;4.00;1.50;;;;;;;8.76;79.14;102050.52;103808;1302;61323;-76
2022/11/11 04:59:14;;;;;;;3.10;1.30;;;;;;;8.75;79.00;102058.38;103002;1302;72101;-75
2022/11/11 05:04:26;;;;;;;3.40;1.30;;;;;;;8.76;79.15;102072.25;103168;1295;61874;-75
2022/11/11 05:09:38;;;;;;;5.70;1.50;;;;;;;8.76;79.00;102082.79;103095;1294;73822;-75
2022/11/11 05:12:05;;;;;;;3.60;1.40;;;;;;;8.77;78.78;102082.73;103956;1298;61480;-75
2022/11/11 05:22:47;;;;;;;4.10;1.30;;;;;;;8.77;78.74;102098.10;103740;1296;74442;-76
2022/11/11 05:25:29;;;;;;;6.40;1.60;;;;;;;8.78;78.67;102102.58;103297;1301;61539;-75
2022/11/11 05:27:56;;;;;;;6.00;1.50;;;;;;;8.82;78.53;102102.10;103211;1301;72498;-75
2022/11/11 05:30:25;;;;;;;4.10;1.50;;;;;;;8.85;78.17;102107.27;104043;1297;59884;-76
2022/11/11 05:32:55;;;;;;;5.50;1.30;;;;;;;8.89;78.07;102106.47;103192;1301;61283;-75
2022/11/11 05:35:21;;;;;;;5.60;1.30;;;;;;;8.92;77.77;102105.85;103468;1301;74625;-75
2022/11/11 05:38:18;;;;;;;5.00;1.50;;;;;;;8.93;77.54;102104.27;103487;1304;70010;-75
2022/11/11 05:40:34;;;;;;;4.30;1.40;;;;;;;8.97;77.68;102102.27;103424;1302;72303;-75
2022/11/11 05:43:01;;;;;;;4.40;1.40;;;;;;;9.00;77.73;102098.98;104072;1298;61391;-75
2022/11/11 05:45:27;;;;;;;6.30;1.50;;;;;;;9.02;77.56;102098.47;103315;1301;61239;-75
2022/11/11 05:47:54;;;;;;;3.80;1.40;;;;;;;9.03;77.33;102093.11;103430;1288;61330;-76
2022/11/11 05:50:20;;;;;;;4.50;1.20;;;;;;;9.04;77.23;102090.40;104168;1297;59506;-76
2022/11/11 05:52:48;;;;;;;3.30;1.10;;;;;;;9.04;77.35;102088.06;103146;1301;62050;-75
2022/11/11 05:55:15;;;;;;;3.70;1.40;;;;;;;9.06;77.19;102084.89;103258;1294;61238;-74
2022/11/11 05:57:41;;;;;;;3.90;1.40;;;;;;;9.08;77.03;102088.05;103271;1297;61289;-75
2022/11/11 06:00:09;;;;;;;3.60;1.20;;;;;;;9.12;77.00;102091.98;103663;1303;74482;-76
2022/11/11 06:02:36;;;;;;;3.50;1.40;;;;;;;9.15;76.92;102093.30;103491;1297;69196;-76
2022/11/11 06:05:03;;;;;;;3.50;1.20;;;;;;;9.16;76.78;102087.75;103397;1297;72575;-75
2022/11/11 06:07:30;;;;;;;3.50;1.20;;;;;;;9.17;76.74;102093.66;103702;1302;61340;-75
2022/11/11 06:10:29;;;;;;;2.50;1.10;;;;;;;9.16;76.52;102091.83;103426;1301;59384;-72
2022/11/11 06:13:03;;;;;;;3.80;1.30;;;;;;;9.16;76.52;102098.71;103280;1295;74494;-72
2022/11/11 06:15:37;;;;;;;4.20;1.40;;;;;;;9.15;76.52;102105.84;103183;1294;70286;-72
2022/11/11 06:18:06;;;;;;;3.70;1.20;;;;;;;9.15;76.44;102107.77;103815;1301;72614;-72
2022/11/11 06:20:34;;;;;;;3.60;1.00;;;;;;;9.14;76.44;102108.71;103256;1295;61322;-72
2022/11/11 06:23:01;;;;;;;4.50;1.30;;;;;;;9.13;76.34;102113.20;103303;1301;62584;-72
2022/11/11 06:28:16;;;;;;;4.40;1.30;;;;;;;9.10;76.51;102124.93;103016;1295;70843;-72
2022/11/11 06:30:43;;;;;;;5.00;1.60;;;;;;;9.08;76.54;102126.38;103628;1295;72517;-72
2022/11/11 06:33:17;;;;;;;4.80;1.40;;;;;;;9.06;76.52;102131.45;103234;1297;61203;-72
2022/11/11 06:35:44;;;;;;;4.20;1.10;;;;;;;9.04;76.60;102125.13;103083;1295;61277;-72
2022/11/11 06:38:10;;;;;;;5.30;1.20;;;;;;;9.03;77.56;102131.22;103790;1294;74287;-72
2022/11/11 06:40:37;;;;;;;6.20;1.60;;;;;;;9.13;80.48;102128.19;102463;1289;70282;-72
2022/11/11 06:43:03;;;;;;;4.20;1.50;;;;;;;9.27;80.26;102124.77;103032;1287;73432;-72
2022/11/11 06:45:32;;;;;;;3.80;1.50;;;;;;;9.36;79.67;102125.89;103571;1301;61478;-73
2022/11/11 06:47:58;;;;;;;4.20;1.40;;;;;;;9.39;77.43;102128.08;102431;1294;62175;-73
2022/11/11 06:50:25;;;;;;;6.30;1.80;;;;;;;9.36;77.16;102127.52;102797;1294;61216;-72
2022/11/11 06:52:52;;;;;;;4.50;1.50;;;;;;;9.34;77.65;102120.94;102679;1294;69628;-71
2022/11/11 06:55:18;;;;;;;31.30;18.20;;;;;;;9.33;77.23;102121.77;103379;1303;61512;-72
2022/11/11 06:57:44;;;;;;;55.70;31.30;;;;;;;9.32;77.68;102119.43;102511;1300;61410;-72
2022/11/11 07:00:12;;;;;;;90.20;50.90;;;;;;;9.30;77.90;102125.32;103269;1294;61314;-72
2022/11/11 07:02:39;;;;;;;11.40;5.10;;;;;;;9.31;78.25;102130.38;103039;1293;73138;-72
2022/11/11 07:05:05;;;;;;;18.40;11.10;;;;;;;9.28;77.61;102134.15;103229;1294;61653;-72
2022/11/11 07:07:32;;;;;;;19.90;10.00;;;;;;;9.27;77.59;102139.21;102405;1294;72473;-72
2022/11/11 07:09:58;;;;;;;14.60;7.90;;;;;;;9.26;77.51;102138.94;102591;1302;61766;-71
2022/11/11 07:12:25;;;;;;;9.40;3.40;;;;;;;9.24;77.48;102140.03;102761;1290;61436;-72
2022/11/11 07:14:51;;;;;;;11.70;5.80;;;;;;;9.23;77.77;102139.61;103622;1294;61282;-71
2022/11/11 07:17:18;;;;;;;5.20;2.20;;;;;;;9.22;77.81;102146.16;102569;1302;61434;-73
2022/11/11 07:19:44;;;;;;;11.00;5.20;;;;;;;9.22;77.37;102150.61;102476;1294;62936;-72
2022/11/11 07:22:11;;;;;;;6.80;3.20;;;;;;;9.20;77.49;102154.66;103032;1294;61368;-73
2022/11/11 07:24:37;;;;;;;57.40;32.50;;;;;;;9.21;77.35;102158.64;103100;1295;61333;-72
2022/11/11 07:27:04;;;;;;;14.00;7.10;;;;;;;9.21;77.14;102157.94;103137;1302;61334;-71
2022/11/11 07:29:30;;;;;;;10.80;5.90;;;;;;;9.22;77.33;102158.55;103250;1293;61404;-72
2022/11/11 07:31:57;;;;;;;9.30;4.40;;;;;;;9.25;77.34;102155.84;103100;1301;61370;-73
2022/11/11 07:34:23;;;;;;;8.90;3.70;;;;;;;9.30;77.52;102149.36;102874;1300;61450;-72
2022/11/11 07:36:49;;;;;;;12.70;5.60;;;;;;;9.35;77.00;102147.23;103105;1301;62506;-72
2022/11/11 07:39:16;;;;;;;9.00;3.50;;;;;;;9.39;77.35;102147.39;103430;1285;61302;-73
2022/11/11 07:41:42;;;;;;;5.70;2.50;;;;;;;9.43;76.62;102145.27;103029;1305;61475;-72
2022/11/11 07:44:09;;;;;;;18.40;9.40;;;;;;;9.50;76.64;102143.79;103387;1301;61879;-70
2022/11/11 07:46:35;;;;;;;38.90;20.20;;;;;;;9.55;76.38;102140.73;102898;1294;61283;-73
2022/11/11 07:49:02;;;;;;;24.50;11.40;;;;;;;9.62;76.45;102135.34;103527;1287;61311;-73
2022/11/11 07:51:29;;;;;;;4.50;1.80;;;;;;;9.68;75.80;102139.22;102651;1303;61424;-72
2022/11/11 07:53:55;;;;;;;14.60;8.30;;;;;;;9.70;75.65;102142.73;102430;1303;61431;-72
2022/11/11 07:56:22;;;;;;;40.30;23.40;;;;;;;9.74;75.78;102144.85;102861;1296;61934;-73
2022/11/11 07:58:48;;;;;;;22.70;13.50;;;;;;;9.82;75.56;102145.27;103444;1286;61331;-73
2022/11/11 08:01:15;;;;;;;40.40;23.50;;;;;;;9.86;74.98;102144.36;102936;1294;61407;-73
2022/11/11 08:03:48;;;;;;;36.00;21.20;;;;;;;9.96;74.99;102147.02;102777;1302;61388;-72
2022/11/11 08:06:19;;;;;;;15.00;7.20;;;;;;;10.04;74.53;102151.48;103598;1297;71224;-72
2022/11/11 08:08:47;;;;;;;16.90;9.30;;;;;;;10.13;74.26;102164.05;102782;1301;72777;-73
2022/11/11 08:11:15;;;;;;;14.60;8.00;;;;;;;10.20;74.02;102167.17;102693;1294;61331;-72
2022/11/11 08:13:43;;;;;;;23.40;12.00;;;;;;;10.29;73.58;102172.11;102551;1300;61359;-72
2022/11/11 08:16:11;;;;;;;8.30;3.70;;;;;;;10.37;73.41;102169.44;103170;1297;74732;-73
2022/11/11 08:18:37;;;;;;;8.40;3.60;;;;;;;10.43;72.86;102171.92;102492;1300;69233;-73
2022/11/11 08:21:04;;;;;;;5.90;2.70;;;;;;;10.52;72.93;102173.77;102708;1286;61337;-72
2022/11/11 08:23:33;;;;;;;12.00;6.20;;;;;;;10.59;72.69;102179.49;102641;1302;61298;-72
2022/11/11 08:26:21;;;;;;;7.20;4.00;;;;;;;10.65;72.45;102185.16;103744;1297;61210;-73
2022/11/11 08:28:55;;;;;;;6.30;2.80;;;;;;;10.73;72.71;102191.15;102415;1295;74705;-72
2022/11/11 08:31:21;;;;;;;7.40;2.00;;;;;;;10.80;72.56;102194.20;103096;1297;69528;-73
2022/11/11 08:33:48;;;;;;;3.90;1.60;;;;;;;10.85;72.00;102203.66;103350;1302;61482;-72
2022/11/11 08:36:15;;;;;;;3.20;1.60;;;;;;;10.88;72.13;102199.90;102903;1301;61321;-72
2022/11/11 08:38:46;;;;;;;16.40;11.20;;;;;;;10.88;72.03;102198.78;102669;1302;61278;-72
2022/11/11 08:41:15;;;;;;;19.10;11.60;;;;;;;10.89;71.98;102192.16;102627;1297;74816;-71
2022/11/11 08:43:41;;;;;;;37.00;22.50;;;;;;;10.90;72.29;102186.90;102652;1302;70940;-72
2022/11/11 08:46:10;;;;;;;10.30;5.30;;;;;;;10.94;72.22;102184.77;103578;1300;61264;-72
2022/11/11 08:48:37;;;;;;;14.70;7.80;;;;;;;10.99;71.97;102186.25;102729;1294;61427;-71
2022/11/11 08:51:03;;;;;;;7.60;3.50;;;;;;;11.05;71.81;102189.85;103472;1295;61200;-72
2022/11/11 08:53:31;;;;;;;26.20;15.60;;;;;;;11.08;71.54;102191.70;103002;1294;61242;-72
2022/11/11 08:56:00;;;;;;;19.40;11.80;;;;;;;11.12;71.18;102194.13;102579;1297;69689;-71
2022/11/11 08:58:27;;;;;;;9.40;4.50;;;;;;;11.18;71.32;102195.36;102844;1301;71195;-71
2022/11/11 09:00:54;;;;;;;14.00;7.30;;;;;;;11.26;71.19;102199.05;102502;1294;61624;-71
2022/11/11 09:03:20;;;;;;;18.40;9.70;;;;;;;11.35;70.95;102193.36;103674;1287;59651;-71
2022/11/11 09:05:47;;;;;;;19.00;10.20;;;;;;;11.47;70.97;102193.52;102571;1301;72959;-72
2022/11/11 09:08:13;;;;;;;9.50;4.20;;;;;;;11.59;70.99;102197.31;103607;1296;70862;-72
2022/11/11 09:10:41;;;;;;;11.10;4.60;;;;;;;11.71;70.65;102203.89;102379;1304;61337;-73
2022/11/11 09:13:07;;;;;;;9.50;3.80;;;;;;;11.82;70.10;102201.77;102943;1301;62340;-73
2022/11/11 09:15:34;;;;;;;12.90;7.60;;;;;;;11.91;69.75;102203.23;102611;1295;61270;-73
2022/11/11 09:18:00;;;;;;;6.10;2.20;;;;;;;12.01;69.39;102206.14;103154;1301;61413;-73
2022/11/11 09:20:27;;;;;;;6.20;2.90;;;;;;;12.10;68.61;102205.83;103273;1294;61497;-73
2022/11/11 09:22:53;;;;;;;8.30;3.40;;;;;;;12.17;68.07;102211.16;102799;1301;62872;-71
2022/11/11 09:25:22;;;;;;;9.40;3.70;;;;;;;12.28;67.68;102210.36;103711;1301;61594;-72
2022/11/11 09:27:59;;;;;;;7.40;2.60;;;;;;;12.34;66.89;102223.37;103053;1292;61289;-72
2022/11/11 09:30:27;;;;;;;12.90;7.10;;;;;;;12.41;66.29;102214.16;102649;1291;74253;-74
2022/11/11 09:32:54;;;;;;;10.90;6.00;;;;;;;12.51;66.18;102217.89;102520;1302;69561;-73
2022/11/11 09:35:21;;;;;;;7.20;2.80;;;;;;;12.59;65.56;102229.42;102564;1294;61376;-72
2022/11/11 09:37:55;;;;;;;9.00;4.60;;;;;;;12.68;64.93;102233.24;103458;1295;62572;-72
2022/11/11 09:40:26;;;;;;;6.40;2.90;;;;;;;12.77;64.80;102232.73;102350;1298;61947;-73
2022/11/11 09:43:08;;;;;;;7.20;3.30;;;;;;;12.85;64.26;102240.89;102844;1289;73095;-72
2022/11/11 09:45:59;;;;;;;7.00;2.70;;;;;;;12.97;64.32;102242.44;103357;1300;69596;-71
2022/11/11 09:48:44;;;;;;;7.00;2.60;;;;;;;13.08;63.79;102237.61;102572;1300;72702;-72
2022/11/11 09:51:26;;;;;;;7.10;2.80;;;;;;;13.18;63.46;102240.52;102742;1301;61274;-72
2022/11/11 09:53:59;;;;;;;9.90;4.20;;;;;;;13.28;63.27;102238.47;103294;1300;61225;-72
2022/11/11 09:56:26;;;;;;;11.30;6.00;;;;;;;13.33;62.48;102241.00;102729;1301;74370;-71
2022/11/11 09:59:07;;;;;;;27.60;16.10;;;;;;;13.43;62.76;102246.70;102531;1297;70275;-73
2022/11/11 10:01:42;;;;;;;10.70;5.10;;;;;;;13.47;62.23;102250.80;103701;1294;72454;-72
2022/11/11 10:04:22;;;;;;;10.80;4.30;;;;;;;13.50;61.99;102254.63;102408;1301;61335;-73
2022/11/11 10:06:52;;;;;;;4.10;1.10;;;;;;;13.53;61.63;102250.67;102753;1302;61270;-72
2022/11/11 10:09:40;;;;;;;18.00;10.70;;;;;;;13.57;61.42;102252.84;102542;1303;74742;-72
2022/11/11 10:12:10;;;;;;;27.10;16.50;;;;;;;13.59;61.54;102254.11;102742;1294;71430;-71
2022/11/11 10:14:44;;;;;;;8.50;3.70;;;;;;;13.64;61.43;102248.01;103188;1297;71085;-73
2022/11/11 10:17:52;;;;;;;14.30;7.20;;;;;;;13.71;61.19;102250.15;102512;1300;61848;-72
2022/11/11 10:20:24;;;;;;;7.30;3.10;;;;;;;13.84;61.09;102249.83;102739;1302;61322;-72
2022/11/11 10:23:02;;;;;;;18.50;10.30;;;;;;;13.93;60.96;102254.45;102532;1300;73100;-72
2022/11/11 10:25:29;;;;;;;8.00;2.90;;;;;;;13.98;60.32;102257.08;102758;1304;69570;-72
2022/11/11 10:27:58;;;;;;;5.00;2.30;;;;;;;13.97;60.19;102256.66;102479;1304;71344;-71
2022/11/11 10:30:31;;;;;;;8.70;4.50;;;;;;;14.00;60.31;102246.98;102809;1295;61366;-73
2022/11/11 10:33:10;;;;;;;6.80;3.00;;;;;;;14.03;60.13;102250.77;103045;1302;61170;-72
2022/11/11 10:35:39;;;;;;;4.00;1.10;;;;;;;14.12;60.30;102248.87;103328;1297;73087;-72
2022/11/11 10:38:09;;;;;;;2.60;0.70;;;;;;;14.18;59.53;102252.89;102665;1302;71012;-72
2022/11/11 10:40:53;;;;;;;2.40;1.00;;;;;;;14.19;59.28;102254.91;102680;1305;72533;-72
2022/11/11 10:43:26;;;;;;;3.70;1.10;;;;;;;14.20;58.60;102265.14;104023;1287;61283;-73
2022/11/11 10:46:31;;;;;;;4.70;1.10;;;;;;;14.22;58.82;102260.52;104616;1295;59151;-73
2022/11/11 10:49:14;;;;;;;3.60;0.90;;;;;;;14.28;58.40;102263.41;104327;1294;73149;-73
2022/11/11 10:51:48;;;;;;;3.90;1.10;;;;;;;14.30;58.33;102258.55;103981;1295;71048;-73
2022/11/11 10:54:25;;;;;;;3.20;0.90;;;;;;;14.30;58.00;102254.98;103275;1286;70667;-72
2022/11/11 10:56:57;;;;;;;2.20;0.80;;;;;;;14.34;57.93;102254.33;102717;1301;61954;-72
2022/11/11 10:59:34;;;;;;;3.90;1.00;;;;;;;14.42;57.54;102257.35;102597;1294;61325;-73
2022/11/11 11:02:29;;;;;;;3.30;0.80;;;;;;;14.56;56.72;102262.63;102525;1300;73100;-73
2022/11/11 11:05:21;;;;;;;3.30;0.90;;;;;;;14.65;56.24;102252.61;102396;1301;216101;-73
2022/11/11 11:07:52;;;;;;;3.30;0.90;;;;;;;14.69;55.94;102255.00;103766;1295;72428;-72
2022/11/11 11:10:29;;;;;;;3.90;0.70;;;;;;;14.80;55.22;102253.45;103373;1296;61765;-72
2022/11/11 11:13:16;;;;;;;3.40;0.80;;;;;;;15.00;55.12;102252.10;102728;1289;61255;-72
2022/11/11 11:15:48;;;;;;;2.70;0.70;;;;;;;15.23;54.01;102257.11;102266;1302;73603;-72
2022/11/11 11:18:17;;;;;;;4.00;0.70;;;;;;;15.47;53.89;102256.42;102670;1302;69707;-73
2022/11/11 11:20:58;;;;;;;4.90;0.80;;;;;;;15.74;52.85;102256.40;102466;1297;72444;-73
2022/11/11 11:23:46;;;;;;;2.40;0.70;;;;;;;16.00;51.92;102258.08;102418;1297;61366;-73
2022/11/11 11:26:14;;;;;;;2.60;0.80;;;;;;;16.28;51.08;102252.74;103713;1301;60464;-73
2022/11/11 11:28:58;;;;;;;1.90;0.70;;;;;;;16.61;50.59;102249.53;102837;1302;74905;-73
2022/11/11 11:31:38;;;;;;;2.70;0.80;;;;;;;16.82;49.19;102247.45;102710;1302;69506;-73
2022/11/11 11:34:05;;;;;;;2.80;0.80;;;;;;;17.04;48.80;102251.34;102360;1294;71181;-72
2022/11/11 11:36:32;;;;;;;2.30;0.60;;;;;;;17.25;47.97;102251.36;102857;1302;61590;-72
2022/11/11 11:38:59;;;;;;;3.00;0.90;;;;;;;17.47;47.40;102247.91;102508;1300;61506;-72
2022/11/11 11:41:40;;;;;;;6.20;0.90;;;;;;;17.64;46.79;102243.96;102669;1301;73145;-72
2022/11/11 11:44:31;;;;;;;3.90;0.80;;;;;;;17.87;46.50;102249.96;103756;1300;69934;-72
2022/11/11 11:47:36;;;;;;;3.80;0.90;;;;;;;18.21;46.09;102248.60;102674;1295;71090;-72
2022/11/11 11:50:35;;;;;;;3.10;0.80;;;;;;;18.59;45.19;102243.42;102583;1295;61611;-72
2022/11/11 11:53:41;;;;;;;2.80;0.70;;;;;;;18.81;44.00;102244.42;102160;1302;61502;-72
2022/11/11 11:56:29;;;;;;;2.50;0.80;;;;;;;18.77;43.82;102250.77;102052;1303;73514;-72
2022/11/11 11:59:05;;;;;;;2.30;0.60;;;;;;;18.94;44.00;102248.35;102970;1302;68881;-72
2022/11/11 12:01:41;;;;;;;1.90;0.70;;;;;;;19.16;43.39;102249.42;103181;1301;72392;-72
2022/11/11 12:04:26;;;;;;;2.90;0.70;;;;;;;19.25;42.45;102250.44;103228;1296;61279;-72
2022/11/11 12:07:34;;;;;;;2.50;0.60;;;;;;;19.52;42.27;102250.73;102414;1302;61320;-70
2022/11/11 12:10:32;;;;;;;2.10;0.60;;;;;;;19.93;41.54;102247.03;102752;1302;73180;-73
2022/11/11 12:13:06;;;;;;;2.10;0.70;;;;;;;20.37;41.10;102245.93;103289;1295;70911;-73
2022/11/11 12:15:47;;;;;;;4.40;0.80;;;;;;;20.88;40.04;102243.67;102539;1300;72361;-72
2022/11/11 12:18:27;;;;;;;2.00;0.60;;;;;;;21.40;38.86;102249.13;102890;1301;61308;-73
2022/11/11 12:21:14;;;;;;;2.70;0.70;;;;;;;21.84;37.37;102259.11;103424;1305;60442;-72
2022/11/11 12:23:50;;;;;;;3.00;0.80;;;;;;;22.41;36.36;102250.65;102416;1301;74264;-73
2022/11/11 12:26:30;;;;;;;1.80;0.70;;;;;;;22.87;35.46;102247.54;102425;1302;71024;-72
2022/11/11 12:29:15;;;;;;;2.20;0.70;;;;;;;23.52;35.04;102243.02;102945;1295;71287;-72
2022/11/11 12:32:32;;;;;;;3.00;0.60;;;;;;;23.87;34.11;102239.53;102328;1302;61324;-73
2022/11/11 12:35:32;;;;;;;2.70;0.70;;;;;;;24.05;33.13;102233.27;102898;1302;61241;-73
2022/11/11 12:38:22;;;;;;;3.00;0.60;;;;;;;23.95;32.97;102235.23;102963;1302;72257;-73
2022/11/11 12:41:44;;;;;;;1.50;0.60;;;;;;;24.01;33.01;102233.23;102241;1299;71186;-72
2022/11/11 12:44:12;;;;;;;2.00;0.60;;;;;;;24.07;32.58;102235.25;104106;1293;72818;-73
2022/11/11 12:46:45;;;;;;;1.70;0.60;;;;;;;24.36;32.69;102230.20;103992;1301;61682;-72
2022/11/11 12:49:30;;;;;;;2.00;0.50;;;;;;;24.53;31.89;102234.20;102794;1290;61164;-74
2022/11/11 12:52:15;;;;;;;1.80;0.60;;;;;;;24.72;31.88;102229.91;102621;1295;74857;-73
2022/11/11 12:55:05;;;;;;;1.80;0.50;;;;;;;24.78;31.51;102230.48;103110;1302;69969;-73
2022/11/11 12:57:56;;;;;;;2.70;0.60;;;;;;;24.84;31.70;102228.64;103475;1302;72335;-72
2022/11/11 13:00:25;;;;;;;1.40;0.50;;;;;;;24.80;31.26;102233.00;102505;1295;61432;-72